CheckWX is a tool to help pilots better visualize weather data.  It is not intended as a substitute for an official pre-flight weather briefing.

16:19:45 UTC

KAND TAF
Anderson Regional Airport
Anderson, South Carolina, USA
KAND 141405Z 1414/1512 26013G21KT P6SM FEW010 FM141600 26015G23KT P6SM SCT060 FM150200 24006KT P6SM FEW250

Dec-14@
14:00 UTC

Dec-14 @ 14:00 UTC

Dec-14@
16:00 UTC

Dec-14 @ 16:00 UTC

KAND 141405Z 1414/1512 26013G21KT P6SM FEW010

Expired

Wind
  • 260° at 13 KTS
  • {Gusting to 21 KTS
Cloud Levels
  • Few at 1,000' AGL

Dec-14@
16:00 UTC

Dec-14 @ 16:00 UTC

Dec-15@
02:00 UTC

Dec-15 @ 02:00 UTC

FM141600 26015G23KT P6SM SCT060

From

From Standard forecast or significant change

Wind
  • 260° at 15 KTS
  • {Gusting to 23 KTS
Cloud Levels
  • Scattered at 6,000' AGL

Dec-15@
02:00 UTC

Dec-15 @ 02:00 UTC

Dec-15@
12:00 UTC

Dec-15 @ 12:00 UTC

FM150200 24006KT P6SM FEW250

From

From Standard forecast or significant change

Wind
  • 240° at 6 KTS
Cloud Levels
  • Few at 25,000' AGL